Time;durP1;ratioP1;P1;durP2;ratioP2;P2;SDS_P1;SDS_P2;PMS_P1;PMS_P2;Temp;Humidity;BMP_temperature;BMP_pressure;BME280_temperature;BME280_humidity;BME280_pressure;Samples;Min_cycle;Max_cycle;Signal;HPM_P1;HPM_P2
2022/03/29 00:01:54;;;;;;;17.40;8.30;;;;;8.50;101074.00;;;;5046656;28;20232;-69
2022/03/29 00:04:40;;;;;;;15.57;7.87;;;;;8.60;101081.00;;;;5045521;28;20745;-68
2022/03/29 00:07:27;;;;;;;13.73;7.57;;;;;8.50;101072.00;;;;5046730;28;20236;-69
2022/03/29 00:10:13;;;;;;;18.07;8.77;;;;;8.60;101075.00;;;;5045699;28;20228;-69
2022/03/29 00:12:59;;;;;;;13.67;7.80;;;;;8.60;101082.00;;;;5046760;28;20722;-66
2022/03/29 00:15:45;;;;;;;16.57;8.80;;;;;8.60;101074.00;;;;5046866;28;20266;-69
2022/03/29 00:18:33;;;;;;;16.00;7.90;;;;;8.60;101066.00;;;;5031489;28;20355;-69
2022/03/29 00:21:19;;;;;;;16.73;7.87;;;;;8.60;101049.00;;;;5034760;28;20605;-69
2022/03/29 00:24:06;;;;;;;14.53;7.63;;;;;8.50;101057.00;;;;5044358;28;20237;-69
2022/03/29 00:26:52;;;;;;;15.97;8.23;;;;;8.60;101057.00;;;;5042912;28;20315;-68
2022/03/29 00:29:38;;;;;;;15.87;8.37;;;;;8.60;101058.00;;;;5043855;28;20236;-71
2022/03/29 00:32:24;;;;;;;13.97;8.10;;;;;8.60;101059.00;;;;5030509;28;20318;-71
2022/03/29 00:35:12;;;;;;;18.10;8.63;;;;;8.70;101058.00;;;;5044310;28;20261;-69
2022/03/29 00:37:58;;;;;;;17.63;8.87;;;;;8.60;101045.00;;;;5044981;28;20308;-71
2022/03/29 00:40:45;;;;;;;18.33;9.00;;;;;8.50;101051.00;;;;5045888;28;20333;-67
2022/03/29 00:43:32;;;;;;;17.20;8.60;;;;;8.50;101053.00;;;;5033813;28;20242;-68
2022/03/29 00:46:19;;;;;;;16.80;8.50;;;;;8.60;101042.00;;;;5029447;28;20253;-69
2022/03/29 00:49:05;;;;;;;17.13;8.87;;;;;8.60;101048.00;;;;5045424;28;20278;-67
2022/03/29 00:51:55;;;;;;;17.53;9.57;;;;;8.50;101048.00;;;;5046173;28;20241;-69
2022/03/29 00:54:42;;;;;;;17.13;8.73;;;;;8.50;101051.00;;;;5045979;28;20237;-69
2022/03/29 00:57:28;;;;;;;17.33;9.30;;;;;8.50;101057.00;;;;5018703;28;20236;-69
2022/03/29 01:00:16;;;;;;;19.77;9.27;;;;;8.50;101040.00;;;;5043133;28;20265;-69
2022/03/29 01:03:03;;;;;;;17.40;8.60;;;;;8.40;101045.00;;;;5041555;28;20237;-67
2022/03/29 01:05:50;;;;;;;16.47;7.80;;;;;8.40;101047.00;;;;5024503;28;20304;-69
2022/03/29 01:08:37;;;;;;;13.53;7.93;;;;;8.30;101038.00;;;;5034239;28;20898;-69
2022/03/29 01:11:24;;;;;;;17.30;8.57;;;;;8.30;101038.00;;;;5032086;28;20235;-70
2022/03/29 01:14:10;;;;;;;18.77;9.77;;;;;8.20;101029.00;;;;5047074;28;20225;-69
2022/03/29 01:20:10;;;;;;;19.13;9.53;;;;;8.30;101029.00;;;;5012246;28;20926;-68
2022/03/29 01:23:00;;;;;;;21.10;9.47;;;;;8.40;101023.00;;;;5047597;28;20221;-69
2022/03/29 01:25:50;;;;;;;20.50;9.53;;;;;8.30;101020.00;;;;5047142;28;20250;-69
2022/03/29 01:28:38;;;;;;;17.83;8.53;;;;;8.30;101019.00;;;;5034958;28;20288;-70
2022/03/29 01:31:25;;;;;;;21.17;9.07;;;;;8.30;101024.00;;;;5031970;28;20327;-69
2022/03/29 01:34:12;;;;;;;20.77;9.30;;;;;8.10;101023.00;;;;5046907;28;20228;-69
2022/03/29 01:36:59;;;;;;;18.53;9.27;;;;;8.10;101018.00;;;;5046805;28;20374;-69
2022/03/29 01:39:46;;;;;;;19.33;9.57;;;;;8.10;101015.00;;;;5046330;28;20613;-70
2022/03/29 01:42:33;;;;;;;16.50;9.23;;;;;7.90;101023.00;;;;5033869;28;20372;-68
2022/03/29 01:45:27;;;;;;;21.50;10.10;;;;;7.90;101027.00;;;;5046733;28;20229;-69
2022/03/29 01:48:13;;;;;;;18.93;10.07;;;;;8.00;101025.00;;;;5046593;28;20244;-69
2022/03/29 01:50:59;;;;;;;20.50;10.20;;;;;8.10;101027.00;;;;5046824;28;20232;-69
2022/03/29 01:53:53;;;;;;;20.07;9.77;;;;;8.20;101026.00;;;;5046880;28;20278;-71
2022/03/29 01:56:41;;;;;;;20.37;10.20;;;;;8.10;101016.00;;;;5035134;28;20246;-70
2022/03/29 02:00:30;;;;;;;20.77;10.77;;;;;8.20;101014.00;;;;5031564;28;20231;-70
2022/03/29 02:02:33;;;;;;;25.33;10.87;;;;;8.20;101009.00;;;;5033383;28;20591;-69
2022/03/29 02:05:20;;;;;;;17.27;9.40;;;;;8.20;101009.00;;;;5046570;28;20306;-70
2022/03/29 02:08:07;;;;;;;19.67;10.23;;;;;8.20;101005.00;;;;5045966;28;20744;-69
2022/03/29 02:10:53;;;;;;;21.87;10.57;;;;;8.20;101007.00;;;;5045450;28;20386;-69
2022/03/29 02:13:41;;;;;;;24.57;10.63;;;;;8.10;101003.00;;;;5044561;28;20596;-70
2022/03/29 02:16:27;;;;;;;21.40;10.43;;;;;8.10;100997.00;;;;5029565;28;20228;-70
2022/03/29 02:19:13;;;;;;;17.83;9.47;;;;;8.10;101001.00;;;;5039970;28;20279;-69
2022/03/29 02:22:00;;;;;;;19.87;10.37;;;;;8.10;100990.00;;;;5036910;28;20352;-68
2022/03/29 02:24:47;;;;;;;19.40;10.87;;;;;8.00;100993.00;;;;5044226;28;20232;-70
2022/03/29 02:27:33;;;;;;;25.43;11.50;;;;;8.10;100982.00;;;;5032559;28;20229;-71
2022/03/29 02:30:21;;;;;;;18.93;10.33;;;;;8.00;100990.00;;;;5045398;28;20224;-70
2022/03/29 02:33:08;;;;;;;25.30;10.17;;;;;8.00;100990.00;;;;5021502;28;20825;-69
2022/03/29 02:35:54;;;;;;;21.00;11.10;;;;;8.00;100982.00;;;;5030198;28;20288;-65
2022/03/29 02:38:40;;;;;;;21.20;10.50;;;;;8.00;100985.00;;;;5033625;28;20228;-66
2022/03/29 02:41:27;;;;;;;20.97;10.60;;;;;8.00;100978.00;;;;5030209;28;20229;-70
2022/03/29 02:44:13;;;;;;;20.07;10.20;;;;;8.00;100977.00;;;;5045209;28;20233;-69
2022/03/29 02:47:01;;;;;;;23.90;11.30;;;;;8.10;100966.00;;;;5045903;28;20248;-68
2022/03/29 02:49:47;;;;;;;20.60;9.87;;;;;8.00;100965.00;;;;5045462;28;20233;-65
2022/03/29 02:52:33;;;;;;;22.30;11.07;;;;;8.20;100959.00;;;;5031770;28;20344;-68
2022/03/29 02:55:21;;;;;;;21.63;10.67;;;;;8.00;100961.00;;;;5045525;28;20236;-68
2022/03/29 02:58:07;;;;;;;21.23;11.50;;;;;8.10;100957.00;;;;5045351;28;20278;-70
2022/03/29 03:00:54;;;;;;;26.67;11.73;;;;;8.10;100955.00;;;;5045752;28;20355;-69
2022/03/29 03:03:41;;;;;;;24.00;10.93;;;;;8.20;100953.00;;;;5033394;28;20237;-66
2022/03/29 03:06:27;;;;;;;23.40;11.60;;;;;8.00;100948.00;;;;5030169;28;20228;-69
2022/03/29 03:09:13;;;;;;;25.00;12.23;;;;;8.00;100946.00;;;;5044678;28;20233;-69
2022/03/29 03:12:00;;;;;;;26.67;12.87;;;;;8.10;100954.00;;;;5045950;28;20249;-70
2022/03/29 03:14:46;;;;;;;25.63;11.67;;;;;8.10;100951.00;;;;5040141;28;20933;-69
2022/03/29 03:17:32;;;;;;;23.10;11.70;;;;;8.00;100949.00;;;;5030984;28;20367;-66
2022/03/29 03:20:21;;;;;;;27.53;11.53;;;;;8.00;100916.00;;;;5044022;28;20609;-66
2022/03/29 03:23:08;;;;;;;23.30;11.10;;;;;7.90;100909.00;;;;5030947;28;20237;-71
2022/03/29 03:25:54;;;;;;;24.50;11.63;;;;;7.90;100934.00;;;;5035382;28;20319;-70
2022/03/29 03:28:41;;;;;;;29.00;12.73;;;;;7.90;100940.00;;;;5048624;28;20233;-69
2022/03/29 03:31:27;;;;;;;29.00;12.73;;;;;7.80;100933.00;;;;5035953;28;20721;-69
2022/03/29 03:34:14;;;;;;;24.47;11.57;;;;;7.80;100942.00;;;;5048329;28;20732;-69
2022/03/29 03:37:03;;;;;;;28.10;12.13;;;;;7.80;100937.00;;;;5049091;28;20228;-69
2022/03/29 03:39:49;;;;;;;26.70;12.27;;;;;7.70;100933.00;;;;5035069;28;20623;-70
2022/03/29 03:42:35;;;;;;;29.20;12.57;;;;;7.70;100931.00;;;;5033963;28;20232;-69
2022/03/29 03:45:22;;;;;;;27.80;12.87;;;;;7.70;100924.00;;;;5048122;28;20236;-70
2022/03/29 03:48:09;;;;;;;31.77;13.50;;;;;7.70;100921.00;;;;5047937;28;20367;-70
2022/03/29 03:50:55;;;;;;;33.13;13.07;;;;;7.80;100916.00;;;;5048564;28;20307;-68
2022/03/29 03:53:44;;;;;;;29.07;13.00;;;;;7.90;100914.00;;;;5035697;28;20232;-67
2022/03/29 03:56:30;;;;;;;26.13;12.77;;;;;7.90;100913.00;;;;5025643;28;20644;-70
2022/03/29 03:59:16;;;;;;;24.60;12.27;;;;;7.90;100894.00;;;;5047625;28;20224;-67
2022/03/29 04:02:03;;;;;;;27.50;12.97;;;;;8.00;100910.00;;;;5048278;28;20232;-69
2022/03/29 04:04:49;;;;;;;31.20;13.97;;;;;7.80;100906.00;;;;5037397;28;20235;-70
2022/03/29 04:07:36;;;;;;;30.90;13.47;;;;;7.80;100907.00;;;;5047901;28;20233;-66
2022/03/29 04:10:23;;;;;;;26.07;12.17;;;;;7.80;100899.00;;;;5047395;28;20283;-65
2022/03/29 04:13:09;;;;;;;32.67;13.97;;;;;7.80;100908.00;;;;5047507;28;20768;-70
2022/03/29 04:15:55;;;;;;;27.00;11.73;;;;;7.80;100905.00;;;;5047984;28;20229;-69
2022/03/29 04:18:47;;;;;;;28.90;13.20;;;;;7.70;100894.00;;;;5031450;28;20236;-68
2022/03/29 04:21:33;;;;;;;25.23;12.33;;;;;7.70;100894.00;;;;5032199;28;20228;-69
2022/03/29 04:24:20;;;;;;;29.63;12.33;;;;;7.60;100887.00;;;;5047318;28;20233;-69
2022/03/29 04:27:08;;;;;;;29.43;12.70;;;;;7.70;100890.00;;;;5047267;28;20227;-68
2022/03/29 04:29:54;;;;;;;27.63;12.30;;;;;7.60;100882.00;;;;5042365;28;20328;-68
2022/03/29 04:32:40;;;;;;;26.80;12.63;;;;;7.80;100891.00;;;;5047239;28;20229;-69
2022/03/29 04:35:27;;;;;;;31.60;12.73;;;;;7.80;100888.00;;;;5046439;28;20231;-69
2022/03/29 04:38:13;;;;;;;28.10;12.47;;;;;7.80;100883.00;;;;5046926;28;20351;-68
2022/03/29 04:40:59;;;;;;;27.40;12.87;;;;;7.70;100880.00;;;;5047279;28;20231;-68
2022/03/29 04:43:47;;;;;;;31.93;13.47;;;;;7.80;100867.00;;;;5035141;28;20225;-68
2022/03/29 04:46:33;;;;;;;31.00;15.10;;;;;7.60;100871.00;;;;5031425;28;20262;-70
2022/03/29 04:49:19;;;;;;;29.93;13.23;;;;;7.60;100875.00;;;;5046522;28;20233;-71
2022/03/29 04:52:06;;;;;;;27.80;13.70;;;;;7.70;100873.00;;;;5042813;28;20228;-70
2022/03/29 04:54:53;;;;;;;25.33;12.43;;;;;7.60;100866.00;;;;5036362;28;20240;-69
2022/03/29 04:57:41;;;;;;;30.70;13.10;;;;;7.70;100872.00;;;;5032887;28;20594;-71
2022/03/29 05:00:29;;;;;;;34.73;13.70;;;;;7.60;100870.00;;;;5046579;28;20287;-68
2022/03/29 05:03:15;;;;;;;31.30;13.33;;;;;7.60;100862.00;;;;5046465;28;20228;-68
2022/03/29 05:06:01;;;;;;;27.27;12.83;;;;;7.50;100854.00;;;;5047057;28;20232;-68
2022/03/29 05:08:48;;;;;;;29.40;13.67;;;;;7.60;100856.00;;;;5034086;28;20278;-68
2022/03/29 05:11:35;;;;;;;29.23;12.03;;;;;7.60;100855.00;;;;5030993;28;20216;-68
2022/03/29 05:14:21;;;;;;;30.97;12.57;;;;;7.60;100831.00;;;;5046766;28;20729;-67
2022/03/29 05:17:09;;;;;;;29.63;14.07;;;;;7.60;100846.00;;;;5039493;28;20606;-69
2022/03/29 05:19:55;;;;;;;32.67;13.70;;;;;7.40;100837.00;;;;5032090;28;20355;-69
2022/03/29 05:22:42;;;;;;;27.50;12.47;;;;;7.40;100834.00;;;;5032742;28;20720;-69
2022/03/29 05:25:28;;;;;;;31.50;12.90;;;;;7.50;100832.00;;;;5046363;28;20295;-70
2022/03/29 05:28:15;;;;;;;37.87;14.37;;;;;7.50;100838.00;;;;5039394;28;20249;-69
2022/03/29 05:31:01;;;;;;;28.97;12.70;;;;;7.60;100837.00;;;;5023517;28;20237;-68
2022/03/29 05:33:49;;;;;;;34.27;15.13;;;;;7.50;100832.00;;;;5034080;28;20236;-69
2022/03/29 05:36:36;;;;;;;41.97;15.77;;;;;7.50;100835.00;;;;5030738;28;20228;-68
2022/03/29 05:39:22;;;;;;;36.47;14.10;;;;;7.60;100835.00;;;;5045325;28;20295;-69
2022/03/29 05:42:09;;;;;;;30.70;13.17;;;;;7.60;100834.00;;;;5046499;28;20287;-69
2022/03/29 05:44:56;;;;;;;30.90;13.20;;;;;7.60;100830.00;;;;5036023;28;20376;-68
2022/03/29 05:50:47;;;;;;;28.23;12.73;;;;;7.50;100838.00;;;;5036006;28;20787;-70
2022/03/29 05:53:33;;;;;;;31.13;13.10;;;;;7.60;100831.00;;;;5045391;28;20295;-69
2022/03/29 05:56:20;;;;;;;30.20;13.13;;;;;7.50;100843.00;;;;5045893;28;20267;-70
2022/03/29 05:59:08;;;;;;;35.10;14.13;;;;;7.60;100832.00;;;;5045738;28;20296;-68
2022/03/29 06:01:57;;;;;;;26.93;13.23;;;;;7.60;100833.00;;;;5035412;28;20300;-69
2022/03/29 06:04:44;;;;;;;29.70;13.30;;;;;7.50;100833.00;;;;5031893;28;20349;-69
2022/03/29 06:07:31;;;;;;;33.37;13.83;;;;;7.50;100834.00;;;;5045601;28;20232;-69
2022/03/29 06:10:18;;;;;;;30.67;13.17;;;;;7.50;100838.00;;;;5044939;28;20231;-69
2022/03/29 06:13:04;;;;;;;28.43;12.43;;;;;7.50;100837.00;;;;5045826;28;20233;-68
2022/03/29 06:15:51;;;;;;;29.63;12.57;;;;;7.50;100826.00;;;;5034341;28;20244;-69
2022/03/29 06:18:37;;;;;;;27.67;12.80;;;;;7.60;100826.00;;;;5022439;28;20383;-69
2022/03/29 06:21:24;;;;;;;32.87;13.17;;;;;7.50;100832.00;;;;5045963;28;20239;-69
2022/03/29 06:24:13;;;;;;;29.87;12.23;;;;;7.50;100851.00;;;;5045663;28;20671;-69
2022/03/29 06:26:59;;;;;;;27.03;12.77;;;;;7.60;100844.00;;;;5045937;28;20387;-69
2022/03/29 06:29:45;;;;;;;30.93;13.17;;;;;7.60;100844.00;;;;5028079;28;20257;-69
2022/03/29 06:32:45;;;;;;;29.97;13.23;;;;;7.50;100844.00;;;;5045465;28;20314;-68
2022/03/29 06:35:34;;;;;;;31.20;12.77;;;;;7.60;100851.00;;;;5045434;28;20731;-69
2022/03/29 06:38:22;;;;;;;30.23;12.83;;;;;7.40;100851.00;;;;5044667;28;20616;-69
2022/03/29 06:41:10;;;;;;;32.03;12.93;;;;;7.40;100853.00;;;;5045410;28;20237;-69
2022/03/29 06:43:56;;;;;;;31.37;12.17;;;;;7.30;100858.00;;;;5032318;28;20236;-69
2022/03/29 06:46:43;;;;;;;30.90;14.13;;;;;7.50;100850.00;;;;5018629;28;20236;-69
2022/03/29 06:49:30;;;;;;;29.87;13.20;;;;;7.50;100860.00;;;;5030266;28;20391;-68
2022/03/29 06:52:17;;;;;;;32.43;12.93;;;;;7.30;100855.00;;;;5039885;28;20291;-68
2022/03/29 06:55:03;;;;;;;33.73;12.90;;;;;7.30;100858.00;;;;5039817;28;20375;-69
2022/03/29 06:57:51;;;;;;;36.10;14.67;;;;;7.30;100853.00;;;;5039915;28;20228;-70
2022/03/29 07:00:38;;;;;;;26.67;11.70;;;;;7.40;100851.00;;;;5035204;28;20236;-70
2022/03/29 07:03:25;;;;;;;32.03;14.07;;;;;7.40;100851.00;;;;5051735;28;20600;-68
2022/03/29 07:06:11;;;;;;;32.17;13.93;;;;;7.60;100859.00;;;;5033243;28;20237;-68
2022/03/29 07:12:20;;;;;;;38.43;14.47;;;;;7.70;100856.00;;;;5050418;28;20224;-69
2022/03/29 07:15:08;;;;;;;26.80;12.77;;;;;7.70;100862.00;;;;5043107;28;20302;-70
2022/03/29 07:17:56;;;;;;;32.23;14.50;;;;;7.50;100859.00;;;;5020058;28;20429;-69
2022/03/29 07:20:42;;;;;;;27.90;12.83;;;;;7.50;100854.00;;;;5035371;28;20240;-69
2022/03/29 07:23:29;;;;;;;32.90;13.17;;;;;7.80;100854.00;;;;5047191;28;20306;-69
2022/03/29 07:26:16;;;;;;;37.30;14.37;;;;;7.70;100857.00;;;;5050699;28;20255;-70
2022/03/29 07:29:04;;;;;;;36.77;15.00;;;;;7.70;100854.00;;;;5040796;28;20971;-69
2022/03/29 07:31:53;;;;;;;33.40;14.20;;;;;7.70;100826.00;;;;5044352;28;20303;-68
2022/03/29 07:34:40;;;;;;;35.17;14.33;;;;;7.60;100853.00;;;;5025019;28;20283;-70
2022/03/29 07:37:26;;;;;;;33.00;13.20;;;;;7.80;100850.00;;;;5029227;28;20303;-70
2022/03/29 07:40:16;;;;;;;34.07;14.10;;;;;8.00;100854.00;;;;5034408;28;20236;-69
2022/03/29 07:43:03;;;;;;;31.20;13.43;;;;;7.90;100857.00;;;;5040729;28;20228;-68
2022/03/29 07:45:50;;;;;;;39.67;13.63;;;;;7.90;100848.00;;;;5050677;28;20227;-68
2022/03/29 07:48:38;;;;;;;32.47;12.67;;;;;7.90;100849.00;;;;5051154;28;20312;-67
2022/03/29 07:51:45;;;;;;;31.50;12.80;;;;;7.80;100849.00;;;;5052310;28;20229;-69
2022/03/29 07:54:31;;;;;;;33.37;12.87;;;;;7.80;100844.00;;;;5052744;28;20775;-69
2022/03/29 07:57:17;;;;;;;34.73;14.10;;;;;7.80;100835.00;;;;5040740;28;20244;-67
2022/03/29 08:00:33;;;;;;;33.63;13.63;;;;;7.80;100834.00;;;;5046486;28;20232;-68
2022/03/29 08:03:21;;;;;;;40.37;14.30;;;;;7.90;100836.00;;;;5050568;28;20225;-67
2022/03/29 08:06:09;;;;;;;34.67;14.40;;;;;7.90;100833.00;;;;5052893;28;20277;-67
2022/03/29 08:08:56;;;;;;;37.67;14.47;;;;;7.90;100839.00;;;;5039444;28;20351;-67
2022/03/29 08:11:42;;;;;;;42.40;13.97;;;;;7.90;100835.00;;;;5033234;28;20311;-68
2022/03/29 08:14:28;;;;;;;37.77;13.70;;;;;8.10;100830.00;;;;5046768;28;20247;-68
2022/03/29 08:17:14;;;;;;;33.57;14.20;;;;;8.00;100830.00;;;;5040316;28;20327;-68
2022/03/29 08:20:01;;;;;;;35.93;14.77;;;;;8.00;100843.00;;;;5036388;28;20236;-67
2022/03/29 08:22:49;;;;;;;37.37;15.00;;;;;8.10;100832.00;;;;5032141;28;20228;-67
2022/03/29 08:25:37;;;;;;;37.27;14.37;;;;;8.10;100826.00;;;;5046685;28;20232;-67
2022/03/29 08:28:23;;;;;;;38.23;14.67;;;;;8.20;100823.00;;;;5046397;28;20334;-68
2022/03/29 08:31:10;;;;;;;35.87;14.70;;;;;8.30;100826.00;;;;5031341;28;20229;-69
2022/03/29 08:33:56;;;;;;;31.30;14.37;;;;;8.20;100818.00;;;;5026222;28;20229;-69
2022/03/29 08:36:42;;;;;;;33.07;15.43;;;;;8.00;100825.00;;;;5020110;28;20233;-67
2022/03/29 08:39:29;;;;;;;33.20;15.03;;;;;7.90;100830.00;;;;5005607;28;20234;-69
2022/03/29 08:42:18;;;;;;;38.67;14.53;;;;;7.90;100825.00;;;;5008801;28;20285;-68
2022/03/29 08:45:07;;;;;;;36.37;13.33;;;;;8.10;100826.00;;;;5016166;28;20395;-66
2022/03/29 08:47:56;;;;;;;31.40;13.77;;;;;8.10;100821.00;;;;5013128;28;20835;-69
2022/03/29 08:50:43;;;;;;;32.67;13.50;;;;;8.00;100819.00;;;;5033040;28;20234;-71
2022/03/29 08:53:29;;;;;;;27.87;12.37;;;;;8.00;100820.00;;;;5059315;28;20293;-70
2022/03/29 08:56:17;;;;;;;30.80;13.33;;;;;8.10;100813.00;;;;5066251;28;20232;-70
2022/03/29 08:59:03;;;;;;;34.20;14.13;;;;;8.00;100819.00;;;;5060876;28;20239;-71
2022/03/29 09:01:49;;;;;;;32.27;13.47;;;;;8.20;100822.00;;;;5052484;28;20229;-69
2022/03/29 09:04:36;;;;;;;31.00;14.27;;;;;8.20;100813.00;;;;5068847;28;20228;-71
2022/03/29 09:07:22;;;;;;;28.73;12.27;;;;;8.20;100808.00;;;;5067214;28;20212;-68
2022/03/29 09:10:09;;;;;;;31.10;14.33;;;;;8.30;100810.00;;;;5068018;28;20263;-69
2022/03/29 09:13:14;;;;;;;34.23;15.30;;;;;8.30;100808.00;;;;5053362;28;20260;-69
2022/03/29 09:16:03;;;;;;;32.10;13.40;;;;;8.40;100810.00;;;;5055765;28;20283;-69
2022/03/29 09:18:55;;;;;;;33.50;14.10;;;;;8.40;100802.00;;;;5031779;28;20314;-68
2022/03/29 09:21:42;;;;;;;32.20;13.37;;;;;8.40;100805.00;;;;5034931;28;20297;-69
2022/03/29 09:24:31;;;;;;;30.83;13.53;;;;;8.20;100813.00;;;;5019166;28;20286;-68
2022/03/29 09:27:17;;;;;;;28.77;13.17;;;;;8.30;100811.00;;;;5019929;28;20233;-68
2022/03/29 09:30:27;;;;;;;29.93;12.87;;;;;8.30;100815.00;;;;5018375;28;20275;-69
2022/03/29 09:33:14;;;;;;;30.53;14.20;;;;;8.40;100810.00;;;;5046118;28;20998;-64
2022/03/29 09:36:03;;;;;;;26.47;12.13;;;;;8.30;100822.00;;;;5034059;28;20233;-69
2022/03/29 09:38:52;;;;;;;31.37;13.03;;;;;8.30;100814.00;;;;5024964;28;20594;-64
2022/03/29 09:41:40;;;;;;;30.77;13.57;;;;;8.30;100804.00;;;;5043304;28;20720;-68
2022/03/29 09:44:40;;;;;;;31.13;13.60;;;;;8.50;100820.00;;;;5044608;28;20224;-69
2022/03/29 09:47:29;;;;;;;29.00;12.33;;;;;8.40;100805.00;;;;5044979;28;20241;-69
2022/03/29 09:50:15;;;;;;;23.93;12.20;;;;;8.50;100810.00;;;;5044242;28;20351;-68
2022/03/29 09:53:02;;;;;;;28.57;11.60;;;;;8.20;100801.00;;;;5032865;28;20232;-69
2022/03/29 09:55:58;;;;;;;27.57;13.37;;;;;8.50;100797.00;;;;5028790;28;20223;-69
2022/03/29 09:58:45;;;;;;;27.23;12.73;;;;;8.50;100786.00;;;;5044246;28;20234;-68
2022/03/29 10:01:32;;;;;;;23.20;10.93;;;;;8.50;100786.00;;;;5044327;28;20244;-67
2022/03/29 10:04:23;;;;;;;29.33;11.93;;;;;8.60;100787.00;;;;5044226;28;20273;-69
2022/03/29 10:07:11;;;;;;;26.53;11.70;;;;;8.60;100789.00;;;;5034174;28;20276;-68
2022/03/29 10:09:57;;;;;;;24.70;11.20;;;;;8.80;100778.00;;;;5030677;28;20232;-70
2022/03/29 10:12:44;;;;;;;25.53;10.70;;;;;8.70;100788.00;;;;5044023;28;20703;-69
2022/03/29 10:15:51;;;;;;;21.83;11.47;;;;;8.80;100784.00;;;;5031072;28;20701;-69
2022/03/29 10:18:40;;;;;;;20.93;10.80;;;;;9.00;100755.00;;;;5036308;28;20335;-71
2022/03/29 10:21:29;;;;;;;23.97;11.67;;;;;9.20;100775.00;;;;5043973;28;20235;-69
2022/03/29 10:24:16;;;;;;;22.93;10.57;;;;;9.30;100773.00;;;;5044191;28;20726;-70
2022/03/29 10:27:04;;;;;;;30.93;12.57;;;;;9.50;100782.00;;;;5029682;28;20634;-68
2022/03/29 10:29:50;;;;;;;23.07;10.50;;;;;9.90;100777.00;;;;5042978;28;20288;-68
2022/03/29 10:32:36;;;;;;;20.10;10.70;;;;;9.90;100780.00;;;;5040029;28;20316;-68
2022/03/29 10:35:23;;;;;;;24.57;11.10;;;;;10.20;100774.00;;;;5030792;28;21371;-70
2022/03/29 10:38:10;;;;;;;25.03;11.13;;;;;10.20;100766.00;;;;5033374;28;20353;-71
2022/03/29 10:40:57;;;;;;;21.90;10.60;;;;;9.90;100766.00;;;;5043809;28;20237;-72
2022/03/29 10:43:52;;;;;;;22.50;11.03;;;;;9.70;100759.00;;;;5043874;28;20242;-71
2022/03/29 10:46:40;;;;;;;23.10;10.37;;;;;9.80;100756.00;;;;5027055;28;20238;-71
2022/03/29 10:49:32;;;;;;;26.40;12.63;;;;;9.70;100762.00;;;;5043187;28;20250;-71
2022/03/29 10:52:29;;;;;;;24.40;11.40;;;;;9.90;100764.00;;;;5043696;28;20234;-71
2022/03/29 10:55:23;;;;;;;23.03;11.07;;;;;9.90;100762.00;;;;5035083;28;20252;-69
2022/03/29 10:58:11;;;;;;;29.17;13.10;;;;;10.20;100748.00;;;;5033102;28;20609;-70
2022/03/29 11:01:15;;;;;;;27.53;11.97;;;;;10.30;100742.00;;;;5029961;28;20234;-71
2022/03/29 11:04:03;;;;;;;25.43;12.50;;;;;10.60;100745.00;;;;5030823;28;20286;-69
2022/03/29 11:07:12;;;;;;;26.00;11.87;;;;;11.10;100749.00;;;;5044057;28;20223;-68
2022/03/29 11:10:14;;;;;;;22.00;10.83;;;;;11.10;100744.00;;;;5018175;28;20286;-71
2022/03/29 11:13:01;;;;;;;22.83;11.10;;;;;10.80;100739.00;;;;5032705;28;20237;-70
2022/03/29 11:15:49;;;;;;;26.20;12.93;;;;;11.20;100741.00;;;;5048993;28;20331;-68
2022/03/29 11:18:40;;;;;;;26.67;12.70;;;;;11.00;100742.00;;;;5034216;28;20314;-67
2022/03/29 11:21:32;;;;;;;26.07;12.83;;;;;11.10;100742.00;;;;5043596;28;20250;-69
2022/03/29 11:24:21;;;;;;;26.67;12.93;;;;;11.00;100729.00;;;;5043565;28;20919;-67
2022/03/29 11:27:09;;;;;;;27.50;12.73;;;;;11.10;100723.00;;;;5032109;28;20233;-68
2022/03/29 11:29:57;;;;;;;30.77;13.07;;;;;11.10;100732.00;;;;5012713;28;21076;-68
2022/03/29 11:32:46;;;;;;;28.27;13.10;;;;;11.10;100725.00;;;;5043107;28;20684;-67
2022/03/29 11:35:33;;;;;;;23.03;12.20;;;;;11.20;100730.00;;;;5043408;28;20229;-69
2022/03/29 11:38:19;;;;;;;26.40;12.63;;;;;11.20;100729.00;;;;5043070;28;20275;-67
2022/03/29 11:41:05;;;;;;;22.80;11.53;;;;;11.00;100721.00;;;;5020046;28;20236;-69
2022/03/29 11:43:57;;;;;;;24.73;12.10;;;;;11.10;100704.00;;;;5017278;28;20811;-72
2022/03/29 11:46:49;;;;;;;24.73;11.93;;;;;11.30;100706.00;;;;5018872;28;20310;-73
2022/03/29 11:49:40;;;;;;;20.50;10.93;;;;;11.50;100715.00;;;;5013209;28;20230;-70
2022/03/29 11:52:33;;;;;;;27.87;12.20;;;;;11.30;100692.00;;;;5026685;28;20229;-70
2022/03/29 11:55:19;;;;;;;25.73;11.97;;;;;11.30;100691.00;;;;5032862;28;20288;-70
2022/03/29 11:58:20;;;;;;;20.83;11.27;;;;;11.20;100690.00;;;;5021641;28;20719;-70
2022/03/29 12:01:09;;;;;;;23.70;11.73;;;;;11.40;100689.00;;;;5034071;28;20284;-69
2022/03/29 12:03:59;;;;;;;22.67;11.63;;;;;11.40;100683.00;;;;5025007;28;20233;-65
2022/03/29 12:06:48;;;;;;;22.90;10.63;;;;;11.40;100665.00;;;;5044323;28;20283;-70
2022/03/29 12:09:34;;;;;;;22.67;11.67;;;;;11.30;100668.00;;;;5045853;28;20244;-70
2022/03/29 12:12:21;;;;;;;24.80;11.93;;;;;11.50;100667.00;;;;5046550;28;20233;-69
2022/03/29 12:15:08;;;;;;;22.07;11.23;;;;;11.40;100653.00;;;;5037368;28;20612;-69
2022/03/29 12:21:09;;;;;;;21.40;11.93;;;;;11.90;100647.00;;;;5031396;28;20359;-68
2022/03/29 12:24:02;;;;;;;24.33;11.47;;;;;12.30;100642.00;;;;5030630;28;20336;-68
2022/03/29 12:26:49;;;;;;;22.80;11.40;;;;;12.40;100636.00;;;;5046047;28;20282;-69
2022/03/29 12:29:41;;;;;;;27.47;12.97;;;;;12.80;100636.00;;;;5044050;28;20241;-69
2022/03/29 12:32:28;;;;;;;23.97;11.50;;;;;12.90;100635.00;;;;5023049;28;20715;-69
2022/03/29 12:35:18;;;;;;;22.20;11.03;;;;;12.90;100625.00;;;;5020344;28;21022;-72
2022/03/29 12:38:07;;;;;;;24.50;11.47;;;;;13.00;100615.00;;;;5037819;28;20232;-70
2022/03/29 12:40:56;;;;;;;20.93;10.93;;;;;13.20;100618.00;;;;5027075;28;20224;-68
2022/03/29 12:43:53;;;;;;;23.33;12.00;;;;;13.20;100612.00;;;;5027923;28;20817;-68
2022/03/29 12:46:42;;;;;;;25.03;13.40;;;;;13.30;100593.00;;;;5018072;28;20274;-67
2022/03/29 12:49:30;;;;;;;23.70;12.23;;;;;12.80;100579.00;;;;5016778;28;20758;-68
2022/03/29 12:52:17;;;;;;;25.23;12.53;;;;;12.70;100581.00;;;;5041907;28;20304;-68
2022/03/29 12:55:05;;;;;;;24.37;12.10;;;;;13.10;100575.00;;;;5032214;28;20228;-64
2022/03/29 12:58:00;;;;;;;22.53;12.17;;;;;13.30;100579.00;;;;5045774;28;20360;-71
2022/03/29 13:00:47;;;;;;;22.87;11.30;;;;;13.50;100563.00;;;;5042767;28;20241;-70
2022/03/29 13:03:38;;;;;;;22.97;12.20;;;;;13.70;100567.00;;;;5045517;28;20253;-68
2022/03/29 13:06:25;;;;;;;22.43;11.63;;;;;14.00;100553.00;;;;5045442;28;20249;-67
2022/03/29 13:09:13;;;;;;;22.67;12.00;;;;;14.20;100554.00;;;;5032769;28;20603;-69
2022/03/29 13:12:12;;;;;;;25.93;12.27;;;;;14.30;100545.00;;;;5030547;28;20276;-68
2022/03/29 13:14:58;;;;;;;23.73;12.00;;;;;14.50;100544.00;;;;5033456;28;20233;-64
2022/03/29 13:17:44;;;;;;;26.17;11.80;;;;;14.70;100542.00;;;;5044740;28;20231;-68
2022/03/29 13:20:36;;;;;;;31.40;12.10;;;;;14.70;100535.00;;;;5042663;28;20743;-69
2022/03/29 13:23:30;;;;;;;25.80;12.57;;;;;14.80;100536.00;;;;5015381;28;20603;-70
2022/03/29 13:26:17;;;;;;;20.90;11.27;;;;;14.80;100537.00;;;;5023703;28;20232;-68
2022/03/29 13:29:09;;;;;;;24.50;11.77;;;;;14.40;100526.00;;;;5030958;28;20229;-70
2022/03/29 13:31:55;;;;;;;22.07;10.60;;;;;14.40;100521.00;;;;5044679;28;20249;-69
2022/03/29 13:34:43;;;;;;;20.77;11.13;;;;;14.50;100532.00;;;;5038171;28;20751;-70
2022/03/29 13:37:29;;;;;;;22.93;11.20;;;;;14.40;100520.00;;;;5045294;28;20268;-71
2022/03/29 13:40:16;;;;;;;21.43;11.60;;;;;14.60;100513.00;;;;5042721;28;20235;-70
2022/03/29 13:43:03;;;;;;;22.00;10.83;;;;;14.70;100513.00;;;;5030300;28;20275;-66
2022/03/29 13:45:51;;;;;;;22.17;10.77;;;;;14.80;100505.00;;;;5043532;28;20300;-71
2022/03/29 13:48:39;;;;;;;23.67;11.33;;;;;14.90;100502.00;;;;5044470;28;20225;-70
2022/03/29 13:51:25;;;;;;;21.07;10.77;;;;;15.00;100498.00;;;;5045042;28;20236;-69
2022/03/29 13:54:12;;;;;;;21.27;10.57;;;;;15.30;100498.00;;;;5032298;28;20597;-73